createdAt,value
2018-04-30T00:00:58.012Z,16.22
2018-04-30T00:01:57.954Z,16.18
2018-04-30T00:03:51.248Z,16.21
2018-04-30T00:04:51.162Z,16.22
2018-04-30T00:06:44.440Z,16.18
2018-04-30T00:07:44.377Z,16.25
2018-04-30T00:09:37.673Z,16.14
2018-04-30T00:10:37.591Z,16.11
2018-04-30T00:12:30.869Z,16.22
2018-04-30T00:13:30.806Z,16.18
2018-04-30T00:15:24.105Z,16.26
2018-04-30T00:16:24.026Z,16.26
2018-04-30T00:18:17.441Z,16.11
2018-04-30T00:19:17.359Z,16.13
2018-04-30T00:21:10.740Z,16.13
2018-04-30T00:22:10.572Z,16.00
2018-04-30T00:24:04.717Z,15.96
2018-04-30T00:25:04.639Z,15.93
2018-04-30T00:26:57.904Z,15.96
2018-04-30T00:27:57.846Z,15.92
2018-04-30T00:29:51.242Z,15.81
2018-04-30T00:30:51.054Z,15.78
2018-04-30T00:32:44.435Z,15.44
2018-04-30T00:33:44.326Z,15.20
2018-04-30T00:35:37.670Z,15.18
2018-04-30T00:36:37.481Z,15.10
2018-04-30T00:38:30.777Z,15.07
2018-04-30T00:39:30.693Z,15.16
2018-04-30T00:41:23.974Z,15.22
2018-04-30T00:42:23.910Z,15.10
2018-04-30T00:44:17.201Z,15.08
2018-04-30T00:45:17.117Z,15.02
2018-04-30T00:47:10.383Z,14.85
2018-04-30T00:48:10.320Z,14.74
2018-04-30T00:50:03.612Z,14.53
2018-04-30T00:51:03.536Z,14.52
2018-04-30T00:52:56.802Z,14.30
2018-04-30T00:53:56.812Z,14.26
2018-04-30T00:55:50.033Z,14.05
2018-04-30T00:56:49.951Z,14.06
2018-04-30T00:58:43.232Z,13.84
2018-04-30T00:59:43.149Z,13.72
2018-04-30T01:01:36.530Z,13.63
2018-04-30T01:02:36.362Z,13.51
2018-04-30T01:04:29.649Z,13.36
2018-04-30T01:05:29.567Z,13.27
2018-04-30T01:07:22.831Z,13.20
2018-04-30T01:08:22.764Z,13.20
2018-04-30T01:10:16.161Z,13.13
2018-04-30T01:11:15.971Z,12.98
2018-04-30T01:13:09.415Z,13.02
2018-04-30T01:14:09.351Z,12.98
2018-04-30T01:16:02.640Z,13.06
2018-04-30T01:17:02.555Z,13.06
2018-04-30T01:18:55.846Z,12.98
2018-04-30T01:19:55.762Z,12.95
2018-04-30T01:21:49.032Z,13.06
2018-04-30T01:22:48.964Z,12.95
2018-04-30T01:24:42.361Z,12.99
2018-04-30T01:25:42.169Z,13.13
2018-04-30T01:27:35.440Z,13.14
2018-04-30T01:28:35.375Z,13.03
2018-04-30T01:30:28.667Z,12.98
2018-04-30T01:31:28.580Z,12.96
2018-04-30T01:33:21.973Z,13.02
2018-04-30T01:34:21.784Z,12.89
2018-04-30T01:36:15.077Z,12.94
2018-04-30T01:37:14.989Z,12.86
2018-04-30T01:39:08.283Z,12.88
2018-04-30T01:40:08.198Z,12.99
2018-04-30T01:42:01.470Z,12.91
2018-04-30T01:43:01.401Z,12.88
2018-04-30T01:44:54.799Z,12.92
2018-04-30T01:45:54.607Z,12.86
2018-04-30T01:47:47.869Z,12.95
2018-04-30T01:48:47.803Z,12.91
2018-04-30T01:50:41.200Z,12.86
2018-04-30T01:51:41.011Z,12.80
2018-04-30T01:53:34.280Z,12.91
2018-04-30T01:54:34.214Z,12.88
2018-04-30T01:56:27.504Z,12.88
2018-04-30T01:57:27.418Z,12.78
2018-04-30T01:59:20.708Z,12.84
2018-04-30T02:00:20.624Z,12.78
2018-04-30T02:02:13.894Z,12.73
2018-04-30T02:03:13.832Z,12.65
2018-04-30T02:05:07.118Z,12.66
2018-04-30T02:06:07.035Z,12.71
2018-04-30T02:08:00.302Z,12.73
2018-04-30T02:09:00.236Z,12.65
2018-04-30T02:10:53.527Z,12.63
2018-04-30T02:11:53.443Z,12.65
2018-04-30T02:13:46.716Z,12.69
2018-04-30T02:14:46.650Z,12.61
2018-04-30T02:16:39.926Z,12.59
2018-04-30T02:17:39.842Z,12.62
2018-04-30T02:19:33.132Z,12.69
2018-04-30T02:20:33.048Z,12.65
2018-04-30T02:22:26.317Z,12.77
2018-04-30T02:23:26.253Z,12.65
2018-04-30T02:25:19.651Z,12.61
2018-04-30T02:26:19.458Z,12.63
2018-04-30T02:28:12.837Z,12.52
2018-04-30T02:29:12.663Z,12.55
2018-04-30T02:31:05.965Z,12.52
2018-04-30T02:32:05.869Z,12.53
2018-04-30T02:33:59.140Z,12.63
2018-04-30T02:34:59.072Z,12.65
2018-04-30T02:36:52.373Z,12.63
2018-04-30T02:37:52.277Z,12.59
2018-04-30T02:39:45.675Z,12.61
2018-04-30T02:40:45.483Z,12.61
2018-04-30T02:42:38.756Z,12.52
2018-04-30T02:43:38.689Z,12.44
2018-04-30T02:45:31.978Z,12.52
2018-04-30T02:46:31.893Z,12.52
2018-04-30T02:48:25.164Z,12.52
2018-04-30T02:49:25.103Z,12.48
2018-04-30T02:51:18.493Z,12.56
2018-04-30T02:52:18.304Z,12.66
2018-04-30T02:54:11.573Z,12.52
2018-04-30T02:55:11.516Z,12.44
2018-04-30T02:57:04.789Z,12.48
2018-04-30T02:58:04.703Z,12.53
2018-04-30T02:59:58.100Z,12.52
2018-04-30T03:00:57.908Z,12.40
2018-04-30T03:02:51.183Z,12.58
2018-04-30T03:03:51.113Z,12.66
2018-04-30T03:05:44.403Z,12.37
2018-04-30T03:06:44.324Z,12.41
2018-04-30T03:08:37.591Z,12.52
2018-04-30T03:09:37.567Z,12.51
2018-04-30T03:11:30.815Z,12.48
2018-04-30T03:12:30.730Z,12.53
2018-04-30T03:14:24.002Z,12.52
2018-04-30T03:15:23.935Z,12.56
2018-04-30T03:17:17.217Z,12.53
2018-04-30T03:18:17.132Z,12.65
2018-04-30T03:20:10.422Z,12.55
2018-04-30T03:21:10.339Z,12.56
2018-04-30T03:23:03.614Z,12.53
2018-04-30T03:24:03.544Z,12.56
2018-04-30T03:25:56.834Z,12.59
2018-04-30T03:26:56.751Z,12.37
2018-04-30T03:28:50.021Z,12.43
2018-04-30T03:29:49.957Z,12.43
2018-04-30T03:31:43.248Z,12.33
2018-04-30T03:32:43.164Z,12.20
2018-04-30T03:34:36.436Z,12.22
2018-04-30T03:35:36.379Z,12.37
2018-04-30T03:37:29.651Z,12.37
2018-04-30T03:38:29.565Z,12.36
2018-04-30T03:40:22.963Z,12.37
2018-04-30T03:41:22.777Z,12.33
2018-04-30T03:43:16.043Z,12.44
2018-04-30T03:44:15.978Z,12.41
2018-04-30T03:46:09.432Z,12.37
2018-04-30T03:47:09.345Z,12.40
2018-04-30T03:49:02.616Z,12.43
2018-04-30T03:50:02.551Z,12.36
2018-04-30T03:51:55.847Z,12.41
2018-04-30T03:52:55.806Z,12.38
2018-04-30T03:54:49.029Z,12.37
2018-04-30T03:55:48.964Z,12.29
2018-04-30T03:57:42.359Z,12.18
2018-04-30T03:58:42.160Z,12.20
2018-04-30T04:00:35.555Z,12.22
2018-04-30T04:01:35.366Z,12.11
2018-04-30T04:03:28.637Z,12.15
2018-04-30T04:04:28.570Z,12.23
2018-04-30T04:06:21.862Z,12.33
2018-04-30T04:07:21.779Z,12.33
2018-04-30T04:09:15.049Z,12.40
2018-04-30T04:10:14.983Z,12.36
2018-04-30T04:12:08.275Z,12.40
2018-04-30T04:13:08.188Z,12.40
2018-04-30T04:15:01.458Z,12.33
2018-04-30T04:16:01.392Z,12.37
2018-04-30T04:17:54.681Z,12.37
2018-04-30T04:18:54.595Z,12.34
2018-04-30T04:20:47.993Z,12.34
2018-04-30T04:21:47.800Z,12.25
2018-04-30T04:23:41.071Z,12.36
2018-04-30T04:24:41.006Z,12.31
2018-04-30T04:26:34.296Z,12.34
2018-04-30T04:27:34.212Z,12.33
2018-04-30T04:29:27.485Z,12.43
2018-04-30T04:30:27.417Z,12.51
2018-04-30T04:32:20.816Z,12.34
2018-04-30T04:33:20.624Z,12.34
2018-04-30T04:35:14.001Z,12.40
2018-04-30T04:36:13.827Z,12.40
2018-04-30T04:38:07.117Z,12.55
2018-04-30T04:39:07.033Z,12.53
2018-04-30T04:41:00.323Z,12.45
2018-04-30T04:42:00.237Z,12.61
2018-04-30T04:43:53.556Z,12.61
2018-04-30T04:44:53.444Z,12.55
2018-04-30T04:46:46.839Z,12.41
2018-04-30T04:47:46.647Z,12.53
2018-04-30T04:49:40.026Z,12.45
2018-04-30T04:50:39.852Z,12.53
2018-04-30T04:52:33.143Z,12.53
2018-04-30T04:53:33.058Z,12.44
2018-04-30T04:55:26.348Z,12.61
2018-04-30T04:56:26.265Z,12.58
2018-04-30T04:58:19.640Z,12.63
2018-04-30T04:59:19.468Z,12.63
2018-04-30T05:01:12.758Z,12.59
2018-04-30T05:02:12.674Z,12.65
2018-04-30T05:04:06.017Z,12.62
2018-04-30T05:05:05.878Z,12.66
2018-04-30T05:06:59.163Z,12.62
2018-04-30T05:07:59.079Z,12.74
2018-04-30T05:09:52.349Z,12.77
2018-04-30T05:10:52.287Z,12.92
2018-04-30T05:12:45.573Z,12.86
2018-04-30T05:13:45.490Z,12.84
2018-04-30T05:15:38.869Z,12.78
2018-04-30T05:16:38.696Z,12.78
2018-04-30T05:18:31.987Z,12.77
2018-04-30T05:19:31.899Z,12.94
2018-04-30T05:21:25.193Z,12.92
2018-04-30T05:22:25.109Z,12.99
2018-04-30T05:24:18.379Z,12.96
2018-04-30T05:25:18.314Z,13.03
2018-04-30T05:27:11.596Z,13.01
2018-04-30T05:28:11.521Z,13.03
2018-04-30T05:30:04.790Z,13.07
2018-04-30T05:31:04.744Z,13.09
2018-04-30T05:32:58.015Z,13.13
2018-04-30T05:33:58.010Z,13.17
2018-04-30T05:35:51.205Z,13.14
2018-04-30T05:36:51.134Z,13.11
2018-04-30T05:38:44.425Z,12.98
2018-04-30T05:39:44.340Z,12.96
2018-04-30T05:41:37.639Z,13.11
2018-04-30T05:42:37.551Z,13.16
2018-04-30T05:44:30.820Z,13.24
2018-04-30T05:45:30.762Z,13.35
2018-04-30T05:47:24.038Z,13.40
2018-04-30T05:48:23.954Z,13.50
2018-04-30T05:50:17.227Z,13.48
2018-04-30T05:51:17.159Z,13.44
2018-04-30T05:53:10.451Z,13.45
2018-04-30T05:54:10.366Z,13.48
2018-04-30T05:56:03.744Z,13.54
2018-04-30T05:57:03.575Z,13.57
2018-04-30T05:58:56.862Z,13.58
2018-04-30T05:59:56.778Z,13.55
2018-04-30T06:01:50.073Z,13.68
2018-04-30T06:02:49.988Z,13.72
2018-04-30T06:04:43.416Z,13.57
2018-04-30T06:05:43.351Z,13.75
2018-04-30T06:07:36.748Z,13.68
2018-04-30T06:08:36.552Z,13.78
2018-04-30T06:10:29.935Z,13.73
2018-04-30T06:11:29.758Z,13.69
2018-04-30T06:13:23.156Z,13.68
2018-04-30T06:14:22.966Z,13.68
2018-04-30T06:16:16.239Z,13.68
2018-04-30T06:17:16.173Z,13.70
2018-04-30T06:19:09.575Z,13.72
2018-04-30T06:20:09.402Z,13.70
2018-04-30T06:22:02.686Z,13.70
2018-04-30T06:23:02.598Z,13.76
2018-04-30T06:24:55.870Z,13.83
2018-04-30T06:25:55.805Z,13.83
2018-04-30T06:27:49.089Z,13.87
2018-04-30T06:28:49.003Z,13.84
2018-04-30T06:30:42.266Z,13.87
2018-04-30T06:31:42.202Z,13.91
2018-04-30T06:33:35.485Z,13.87
2018-04-30T06:34:35.400Z,13.88
2018-04-30T06:36:28.664Z,13.87
2018-04-30T06:37:28.600Z,13.81
2018-04-30T06:39:21.879Z,13.84
2018-04-30T06:40:21.796Z,13.93
2018-04-30T06:42:15.699Z,13.99
2018-04-30T06:43:14.998Z,13.94
2018-04-30T06:45:08.352Z,13.95
2018-04-30T06:46:08.191Z,14.01
2018-04-30T06:48:01.592Z,14.02
2018-04-30T06:49:01.391Z,14.01
2018-04-30T06:50:54.650Z,14.03
2018-04-30T06:51:54.589Z,14.05
2018-04-30T06:53:47.870Z,13.97
2018-04-30T06:54:47.787Z,14.09
2018-04-30T06:56:41.051Z,13.95
2018-04-30T06:57:40.979Z,14.06
2018-04-30T06:59:34.893Z,14.02
2018-04-30T07:00:34.217Z,14.05
2018-04-30T07:02:27.617Z,14.09
2018-04-30T07:03:27.419Z,14.05
2018-04-30T07:05:20.681Z,14.11
2018-04-30T07:06:20.619Z,14.03
2018-04-30T07:08:13.899Z,13.95
2018-04-30T07:09:13.937Z,14.06
2018-04-30T07:11:07.194Z,14.06
2018-04-30T07:12:07.015Z,14.13
2018-04-30T07:14:00.296Z,14.21
2018-04-30T07:15:00.212Z,14.31
2018-04-30T07:16:53.475Z,14.36
2018-04-30T07:17:53.413Z,14.48
2018-04-30T07:19:46.813Z,14.44
2018-04-30T07:20:46.611Z,14.52
2018-04-30T07:22:40.006Z,14.51
2018-04-30T07:23:39.810Z,14.53
2018-04-30T07:25:33.188Z,14.63
2018-04-30T07:26:33.010Z,14.64
2018-04-30T07:28:26.291Z,14.75
2018-04-30T07:29:26.209Z,14.74
2018-04-30T07:31:19.473Z,14.89
2018-04-30T07:32:19.409Z,14.82
2018-04-30T07:34:12.809Z,14.83
2018-04-30T07:35:12.609Z,14.82
2018-04-30T07:37:05.993Z,14.85
2018-04-30T07:38:05.813Z,14.77
2018-04-30T07:39:59.107Z,14.64
2018-04-30T07:40:59.025Z,14.46
2018-04-30T07:42:52.300Z,14.52
2018-04-30T07:43:52.239Z,14.52
2018-04-30T07:45:45.523Z,14.52
2018-04-30T07:46:45.437Z,14.49
2018-04-30T07:48:38.725Z,14.52
2018-04-30T07:49:38.640Z,14.53
2018-04-30T07:51:31.903Z,14.60
2018-04-30T07:52:31.845Z,14.64
2018-04-30T07:54:25.124Z,14.66
2018-04-30T07:55:25.042Z,14.60
2018-04-30T07:57:18.390Z,14.48
2018-04-30T07:58:18.243Z,14.52
2018-04-30T08:00:11.640Z,14.64
2018-04-30T08:01:11.443Z,14.48
2018-04-30T08:03:04.867Z,14.46
2018-04-30T08:04:04.646Z,14.41
2018-04-30T08:05:57.938Z,14.36
2018-04-30T08:06:57.853Z,14.33
2018-04-30T08:08:51.143Z,14.38
2018-04-30T08:09:51.053Z,14.38
2018-04-30T08:11:44.322Z,14.42
2018-04-30T08:12:44.253Z,14.33
2018-04-30T08:14:37.651Z,14.41
2018-04-30T08:15:37.453Z,14.36
2018-04-30T08:17:30.719Z,14.38
2018-04-30T08:18:30.658Z,14.34
2018-04-30T08:20:23.937Z,14.19
2018-04-30T08:21:23.855Z,14.21
2018-04-30T08:23:17.135Z,14.09
2018-04-30T08:24:17.053Z,14.06
2018-04-30T08:26:10.319Z,13.83
2018-04-30T08:27:10.252Z,13.81
2018-04-30T08:29:03.545Z,13.68
2018-04-30T08:30:03.466Z,13.63
2018-04-30T08:31:56.730Z,13.54
2018-04-30T08:32:56.661Z,13.40
2018-04-30T08:34:50.058Z,13.44
2018-04-30T08:35:49.859Z,13.53
2018-04-30T08:37:43.240Z,13.45
2018-04-30T08:38:43.057Z,13.28
2018-04-30T08:40:36.340Z,13.44
2018-04-30T08:41:36.255Z,13.58
2018-04-30T08:43:29.535Z,13.45
2018-04-30T08:44:29.450Z,13.40
2018-04-30T08:46:22.725Z,13.50
2018-04-30T08:47:22.659Z,13.48
2018-04-30T08:49:15.939Z,13.35
2018-04-30T08:50:15.855Z,13.19
2018-04-30T08:52:09.310Z,13.14
2018-04-30T08:53:09.052Z,13.17
2018-04-30T08:55:02.333Z,13.11
2018-04-30T08:56:02.248Z,13.11
2018-04-30T08:57:55.509Z,12.94
2018-04-30T08:58:55.445Z,12.96
2018-04-30T09:00:48.734Z,12.86
2018-04-30T09:01:48.640Z,12.77
2018-04-30T09:03:42.038Z,12.80
2018-04-30T09:04:41.834Z,12.81
2018-04-30T09:06:35.105Z,12.77
2018-04-30T09:07:35.039Z,12.71
2018-04-30T09:09:28.319Z,12.76
2018-04-30T09:10:28.230Z,12.84
2018-04-30T09:12:21.546Z,12.81
2018-04-30T09:13:21.475Z,12.78
2018-04-30T09:15:14.873Z,12.78
2018-04-30T09:16:14.670Z,12.81
2018-04-30T09:18:07.933Z,12.81
2018-04-30T09:19:07.864Z,12.88
2018-04-30T09:21:01.263Z,12.81
2018-04-30T09:22:01.062Z,12.88
2018-04-30T09:23:54.460Z,12.66
2018-04-30T09:24:54.255Z,12.61
2018-04-30T09:26:47.632Z,12.53
2018-04-30T09:27:47.448Z,12.70
2018-04-30T09:29:40.747Z,12.51
2018-04-30T09:30:40.662Z,12.48
2018-04-30T09:32:33.922Z,12.53
2018-04-30T09:33:33.856Z,12.51
2018-04-30T09:35:27.253Z,12.71
2018-04-30T09:36:27.050Z,12.78
2018-04-30T09:38:20.430Z,12.77
2018-04-30T09:39:20.244Z,12.77
2018-04-30T09:41:13.524Z,12.63
2018-04-30T09:42:13.439Z,12.66
2018-04-30T09:44:06.721Z,12.53
2018-04-30T09:45:06.634Z,12.63
2018-04-30T09:46:59.894Z,12.78
2018-04-30T09:47:59.829Z,12.84
2018-04-30T09:49:53.107Z,12.70
2018-04-30T09:50:53.024Z,12.89
2018-04-30T09:52:46.287Z,12.94
2018-04-30T09:53:46.313Z,12.95
2018-04-30T09:55:39.616Z,13.01
2018-04-30T09:56:39.413Z,12.96
2018-04-30T09:58:32.676Z,13.13
2018-04-30T09:59:32.609Z,13.17
2018-04-30T10:01:25.891Z,13.07
2018-04-30T10:02:25.805Z,13.07
2018-04-30T10:04:19.087Z,13.17
2018-04-30T10:05:19.001Z,13.17
2018-04-30T10:07:12.330Z,13.32
2018-04-30T10:08:12.199Z,13.48
2018-04-30T10:10:05.480Z,13.42
2018-04-30T10:11:05.396Z,13.35
2018-04-30T10:12:58.656Z,13.29
2018-04-30T10:13:58.595Z,13.32
2018-04-30T10:15:51.873Z,13.39
2018-04-30T10:16:51.789Z,13.31
2018-04-30T10:18:45.051Z,13.31
2018-04-30T10:19:44.984Z,13.32
2018-04-30T10:21:38.267Z,13.39
2018-04-30T10:22:38.182Z,13.31
2018-04-30T10:24:31.464Z,13.44
2018-04-30T10:25:31.379Z,13.37
2018-04-30T10:27:24.643Z,13.39
2018-04-30T10:28:24.701Z,13.39
2018-04-30T10:30:17.860Z,13.47
2018-04-30T10:31:17.775Z,13.58
2018-04-30T10:33:11.037Z,13.48
2018-04-30T10:34:10.972Z,13.57
2018-04-30T10:36:04.254Z,13.73
2018-04-30T10:37:04.168Z,13.60
2018-04-30T10:38:57.431Z,13.73
2018-04-30T10:39:57.366Z,13.86
2018-04-30T10:41:50.650Z,14.09
2018-04-30T10:42:50.565Z,13.99
2018-04-30T10:44:43.897Z,14.05
2018-04-30T10:45:43.813Z,14.24
2018-04-30T10:47:37.026Z,14.34
2018-04-30T10:48:36.962Z,14.44
2018-04-30T10:50:30.363Z,14.57
2018-04-30T10:51:30.185Z,14.45
2018-04-30T10:53:23.430Z,14.34
2018-04-30T10:54:23.365Z,14.39
2018-04-30T10:56:16.652Z,14.39
2018-04-30T10:57:16.564Z,14.49
2018-04-30T10:59:09.830Z,14.70
2018-04-30T11:00:09.765Z,14.69
2018-04-30T11:02:03.050Z,14.57
2018-04-30T11:03:02.967Z,14.48
2018-04-30T11:04:56.314Z,14.51
2018-04-30T11:05:56.168Z,14.64
2018-04-30T11:07:49.434Z,14.70
2018-04-30T11:08:49.371Z,14.83
2018-04-30T11:10:42.680Z,14.85
2018-04-30T11:11:42.591Z,15.01
2018-04-30T11:13:35.898Z,15.18
2018-04-30T11:14:35.795Z,15.19
2018-04-30T11:16:29.191Z,15.84
2018-04-30T11:17:28.994Z,15.86
2018-04-30T11:19:22.268Z,15.96
2018-04-30T11:20:22.204Z,16.21
2018-04-30T11:22:15.604Z,16.16
2018-04-30T11:23:15.403Z,16.25
2018-04-30T11:25:08.688Z,16.55
2018-04-30T11:26:08.611Z,16.59
2018-04-30T11:28:01.953Z,16.62
2018-04-30T11:29:01.885Z,16.49
2018-04-30T11:30:55.124Z,16.32
2018-04-30T11:31:55.044Z,16.40
2018-04-30T11:33:48.324Z,16.49
2018-04-30T11:34:48.259Z,16.58
2018-04-30T11:36:41.652Z,16.67
2018-04-30T11:37:41.512Z,16.57
2018-04-30T11:39:34.860Z,16.49
2018-04-30T11:40:34.694Z,16.27
2018-04-30T11:42:27.991Z,16.04
2018-04-30T11:43:27.925Z,15.93
2018-04-30T11:45:21.315Z,15.91
2018-04-30T11:46:21.131Z,15.88
2018-04-30T11:48:14.411Z,15.92
2018-04-30T11:49:14.345Z,15.88
2018-04-30T11:51:07.747Z,15.65
2018-04-30T11:52:07.562Z,15.43
2018-04-30T11:54:00.841Z,15.41
2018-04-30T11:55:00.780Z,15.55
2018-04-30T11:56:53.701Z,15.55
2018-04-30T11:57:53.543Z,15.62
2018-04-30T11:59:46.783Z,15.86
2018-04-30T12:00:46.723Z,15.80
2018-04-30T12:02:40.017Z,16.04
2018-04-30T12:03:39.937Z,16.11
2018-04-30T12:05:33.339Z,16.33
2018-04-30T12:06:33.147Z,16.36
2018-04-30T12:08:26.428Z,16.59
2018-04-30T12:09:26.366Z,16.58
2018-04-30T12:11:19.684Z,16.22
2018-04-30T12:12:19.588Z,16.21
2018-04-30T12:14:12.863Z,16.25
2018-04-30T12:15:12.800Z,16.22
2018-04-30T12:17:06.202Z,16.26
2018-04-30T12:18:06.010Z,16.14
2018-04-30T12:19:59.370Z,15.89
2018-04-30T12:20:59.279Z,15.74
2018-04-30T12:22:52.569Z,15.93
2018-04-30T12:23:52.495Z,15.93
2018-04-30T12:25:45.885Z,15.88
2018-04-30T12:26:45.700Z,15.84
2018-04-30T12:28:38.985Z,16.06
2018-04-30T12:29:38.996Z,16.02
2018-04-30T12:31:32.317Z,16.27
2018-04-30T12:32:32.132Z,16.27
2018-04-30T12:34:25.408Z,16.10
2018-04-30T12:35:25.345Z,16.22
2018-04-30T12:37:18.637Z,16.22
2018-04-30T12:38:18.553Z,16.21
2018-04-30T12:40:11.873Z,16.45
2018-04-30T12:41:11.790Z,16.54
2018-04-30T12:43:05.190Z,16.81
2018-04-30T12:44:05.004Z,16.87
2018-04-30T12:45:58.309Z,16.91
2018-04-30T12:46:58.220Z,16.99
2018-04-30T12:48:51.498Z,16.99
2018-04-30T12:49:51.488Z,17.03
2018-04-30T12:51:44.739Z,16.90
2018-04-30T12:52:44.654Z,17.05
2018-04-30T12:54:37.934Z,17.31
2018-04-30T12:55:37.870Z,17.28
2018-04-30T12:57:31.163Z,17.12
2018-04-30T12:58:31.089Z,17.12
2018-04-30T13:00:24.381Z,17.40
2018-04-30T13:01:24.299Z,17.17
2018-04-30T13:03:17.599Z,17.36
2018-04-30T13:04:17.516Z,17.38
2018-04-30T13:06:10.829Z,17.22
2018-04-30T13:07:10.748Z,17.15
2018-04-30T13:09:04.191Z,17.31
2018-04-30T13:10:03.967Z,17.35
2018-04-30T13:11:57.369Z,17.20
2018-04-30T13:12:57.263Z,17.09
2018-04-30T13:14:50.543Z,16.94
2018-04-30T13:15:50.484Z,16.91
2018-04-30T13:17:43.890Z,16.82
2018-04-30T13:18:43.695Z,16.82
2018-04-30T13:20:36.999Z,16.67
2018-04-30T13:21:36.914Z,16.62
2018-04-30T13:23:30.298Z,16.73
2018-04-30T13:24:30.137Z,16.70
2018-04-30T13:26:23.538Z,16.66
2018-04-30T13:27:23.361Z,16.51
2018-04-30T13:29:16.641Z,16.29
2018-04-30T13:30:16.624Z,16.18
2018-04-30T13:32:10.000Z,15.98
2018-04-30T13:33:09.812Z,16.06
2018-04-30T13:35:03.180Z,16.17
2018-04-30T13:36:03.018Z,16.22
2018-04-30T13:37:56.311Z,16.17
2018-04-30T13:38:56.231Z,16.21
2018-04-30T13:40:49.657Z,16.40
2018-04-30T13:41:49.510Z,16.49
2018-04-30T13:43:42.787Z,16.51
2018-04-30T13:44:42.663Z,16.58
2018-04-30T13:46:35.977Z,16.39
2018-04-30T13:47:35.883Z,16.33
2018-04-30T13:49:29.164Z,16.26
2018-04-30T13:50:29.099Z,16.22
2018-04-30T13:52:22.499Z,16.04
2018-04-30T13:53:22.317Z,16.02
2018-04-30T13:55:15.597Z,15.91
2018-04-30T13:56:15.532Z,15.84
2018-04-30T13:58:08.932Z,15.89
2018-04-30T13:59:08.738Z,15.88
2018-04-30T14:01:02.023Z,15.60
2018-04-30T14:02:01.943Z,15.43
2018-04-30T14:03:55.210Z,15.13
2018-04-30T14:04:55.147Z,15.23
2018-04-30T14:06:48.442Z,15.08
2018-04-30T14:07:48.357Z,15.12
2018-04-30T14:09:41.623Z,15.13
2018-04-30T14:10:41.560Z,15.15
2018-04-30T14:12:34.845Z,15.22
2018-04-30T14:13:34.764Z,15.16
2018-04-30T14:15:28.146Z,15.34
2018-04-30T14:16:27.968Z,15.38
2018-04-30T14:18:21.368Z,15.31
2018-04-30T14:19:21.168Z,15.19
2018-04-30T14:21:14.458Z,14.98
2018-04-30T14:22:14.373Z,15.07
2018-04-30T14:24:07.638Z,15.15
2018-04-30T14:25:07.576Z,15.33
2018-04-30T14:27:00.979Z,15.38
2018-04-30T14:28:00.780Z,15.47
2018-04-30T14:29:54.674Z,15.59
2018-04-30T14:30:53.978Z,15.68
2018-04-30T14:32:47.380Z,15.58
2018-04-30T14:33:47.259Z,15.78
2018-04-30T14:35:40.572Z,15.84
2018-04-30T14:36:40.459Z,15.95
2018-04-30T14:38:33.860Z,15.74
2018-04-30T14:39:33.672Z,15.77
2018-04-30T14:41:26.957Z,16.00
2018-04-30T14:42:26.874Z,16.26
2018-04-30T14:44:20.141Z,16.30
2018-04-30T14:45:20.080Z,16.21
2018-04-30T14:47:13.367Z,16.26
2018-04-30T14:48:13.285Z,16.30
2018-04-30T14:50:06.565Z,16.52
2018-04-30T14:51:06.499Z,16.47
2018-04-30T14:52:59.785Z,16.40
2018-04-30T14:53:59.704Z,16.25
2018-04-30T14:55:52.969Z,16.06
2018-04-30T14:56:52.910Z,16.00
2018-04-30T14:58:46.203Z,15.75
2018-04-30T14:59:46.119Z,15.58
2018-04-30T15:01:39.527Z,15.41
2018-04-30T15:02:39.329Z,15.33
2018-04-30T15:04:32.707Z,15.02
2018-04-30T15:05:32.530Z,15.02
2018-04-30T15:07:25.815Z,15.16
2018-04-30T15:08:25.732Z,15.34
2018-04-30T15:10:19.001Z,15.45
2018-04-30T15:11:18.936Z,15.38
2018-04-30T15:13:12.221Z,15.35
2018-04-30T15:14:12.139Z,15.23
2018-04-30T15:16:05.414Z,15.18
2018-04-30T15:17:05.341Z,15.05
2018-04-30T15:18:58.642Z,15.20
2018-04-30T15:19:58.557Z,15.26
2018-04-30T15:21:51.956Z,15.16
2018-04-30T15:22:51.768Z,15.13
2018-04-30T15:24:45.151Z,15.23
2018-04-30T15:25:44.981Z,15.25
2018-04-30T15:27:38.268Z,15.55
2018-04-30T15:28:38.185Z,15.53
2018-04-30T15:30:31.564Z,15.22
2018-04-30T15:31:31.400Z,15.20
2018-04-30T15:33:24.693Z,15.35
2018-04-30T15:34:24.607Z,15.23
2018-04-30T15:36:17.872Z,15.34
2018-04-30T15:37:17.825Z,15.16
2018-04-30T15:39:11.102Z,15.38
2018-04-30T15:40:11.013Z,15.47
2018-04-30T15:42:04.359Z,15.52
2018-04-30T15:43:04.213Z,15.52
2018-04-30T15:44:57.487Z,15.30
2018-04-30T15:45:57.424Z,15.26
2018-04-30T15:47:50.716Z,15.40
2018-04-30T15:48:50.634Z,15.37
2018-04-30T15:50:43.921Z,15.23
2018-04-30T15:51:43.855Z,15.22
2018-04-30T15:53:37.259Z,15.10
2018-04-30T15:54:37.100Z,15.08
2018-04-30T15:56:30.332Z,15.19
2018-04-30T15:57:30.268Z,15.08
2018-04-30T15:59:23.566Z,14.94
2018-04-30T16:00:23.482Z,15.02
2018-04-30T16:02:16.782Z,15.07
2018-04-30T16:03:16.694Z,15.01
2018-04-30T16:05:09.974Z,14.89
2018-04-30T16:06:09.905Z,14.82
2018-04-30T16:08:03.203Z,14.83
2018-04-30T16:09:03.120Z,14.79
2018-04-30T16:10:56.387Z,14.87
2018-04-30T16:11:56.322Z,14.89
2018-04-30T16:13:49.616Z,14.69
2018-04-30T16:14:49.533Z,14.66
2018-04-30T16:16:42.802Z,14.57
2018-04-30T16:17:42.732Z,14.56
2018-04-30T16:19:36.131Z,14.49
2018-04-30T16:20:35.943Z,14.36
2018-04-30T16:22:29.343Z,14.41
2018-04-30T16:23:29.158Z,14.53
2018-04-30T16:25:22.432Z,14.46
2018-04-30T16:26:22.362Z,14.44
2018-04-30T16:28:15.762Z,14.48
2018-04-30T16:29:15.570Z,14.49
2018-04-30T16:31:08.949Z,14.49
2018-04-30T16:32:08.771Z,14.39
2018-04-30T16:34:02.053Z,14.42
2018-04-30T16:35:01.970Z,14.42
2018-04-30T16:36:55.324Z,14.48
2018-04-30T16:37:55.258Z,14.41
2018-04-30T16:39:48.668Z,14.39
2018-04-30T16:40:48.468Z,14.42
2018-04-30T16:42:41.866Z,14.36
2018-04-30T16:43:41.675Z,14.31
2018-04-30T16:45:34.948Z,14.12
2018-04-30T16:46:34.887Z,14.11
2018-04-30T16:48:28.172Z,14.08
2018-04-30T16:49:28.091Z,14.02
2018-04-30T16:51:21.363Z,14.05
2018-04-30T16:52:21.302Z,13.94
2018-04-30T16:54:14.592Z,14.09
2018-04-30T16:55:14.508Z,14.08
2018-04-30T16:57:07.831Z,13.99
2018-04-30T16:58:07.709Z,14.09
2018-04-30T17:00:01.003Z,14.12
2018-04-30T17:01:00.917Z,14.09
2018-04-30T17:02:54.210Z,14.09
2018-04-30T17:03:54.153Z,14.09
2018-04-30T17:05:48.004Z,14.05
2018-04-30T17:06:47.334Z,14.20
2018-04-30T17:08:40.623Z,14.11
2018-04-30T17:09:40.542Z,14.05
2018-04-30T17:11:33.922Z,13.97
2018-04-30T17:12:33.748Z,14.01
2018-04-30T17:14:27.146Z,13.94
2018-04-30T17:15:26.955Z,13.95
2018-04-30T17:17:20.218Z,13.90
2018-04-30T17:18:20.154Z,14.01
2018-04-30T17:20:13.447Z,13.87
2018-04-30T17:21:13.360Z,13.86
2018-04-30T17:23:06.656Z,13.86
2018-04-30T17:24:06.568Z,13.83
2018-04-30T17:25:59.841Z,13.88
2018-04-30T17:26:59.778Z,13.78
2018-04-30T17:28:54.058Z,13.73
2018-04-30T17:29:53.973Z,13.73
2018-04-30T17:31:47.322Z,13.73
2018-04-30T17:32:47.256Z,13.78
2018-04-30T17:34:40.548Z,13.81
2018-04-30T17:35:40.464Z,13.73
2018-04-30T17:37:33.842Z,13.70
2018-04-30T17:38:33.663Z,13.73
2018-04-30T17:40:27.060Z,13.70
2018-04-30T17:41:26.866Z,13.70
2018-04-30T17:43:20.159Z,13.72
2018-04-30T17:44:20.075Z,13.69
2018-04-30T17:46:13.346Z,13.78
2018-04-30T17:47:13.279Z,13.75
2018-04-30T17:49:06.573Z,13.57
2018-04-30T17:50:06.486Z,13.65
2018-04-30T17:51:59.767Z,13.72
2018-04-30T17:52:59.700Z,13.69
2018-04-30T17:54:52.980Z,13.70
2018-04-30T17:55:52.905Z,13.66
2018-04-30T17:57:46.168Z,13.62
2018-04-30T17:58:46.124Z,13.57
2018-04-30T18:00:39.499Z,13.70
2018-04-30T18:01:39.307Z,13.73
2018-04-30T18:03:32.703Z,13.70
2018-04-30T18:04:32.514Z,13.65
2018-04-30T18:06:25.784Z,13.78
2018-04-30T18:07:25.712Z,13.69
2018-04-30T18:09:19.117Z,13.79
2018-04-30T18:10:18.923Z,13.75
2018-04-30T18:12:12.195Z,13.84
2018-04-30T18:13:12.132Z,13.72
2018-04-30T18:15:05.418Z,13.73
2018-04-30T18:16:05.335Z,13.78
2018-04-30T18:17:58.711Z,13.70
2018-04-30T18:18:58.537Z,13.66
2018-04-30T18:20:51.825Z,13.60
2018-04-30T18:21:51.742Z,13.63
2018-04-30T18:23:45.022Z,13.62
2018-04-30T18:24:44.941Z,13.60
2018-04-30T18:26:38.306Z,13.63
2018-04-30T18:27:38.150Z,13.66
2018-04-30T18:29:31.451Z,13.73
2018-04-30T18:30:31.441Z,13.63
2018-04-30T18:32:24.636Z,13.65
2018-04-30T18:33:24.670Z,13.62
2018-04-30T18:35:17.866Z,13.53